Monday, August 21, 2017, 8:08 AM EDT

KLKU, Louisa, Louisa County Airport/freeman Field

Location: Louisa, VA, United States Lat: 38.01
Local Time: 8:08 AM EDT (12:08 GMT) Lon: -77.97
Time Zone: US/Eastern Elev: 492 ft

Show me the last for .
Show Decoded

2017-08-21 07:35 METAR KLKU 211135Z AUTO 13003KT 4SM BR CLR 21/21 A3021 RMK AO2 =
2017-08-21 07:15 METAR KLKU 211115Z AUTO 13003KT 1 3/4SM BR VV007 20/19 A3021 RMK AO2 =
2017-08-21 06:55 METAR KLKU 211055Z AUTO 00000KT 1 3/4SM BR VV007 20/19 A3020 RMK AO2 =
2017-08-21 06:35 METAR KLKU 211035Z AUTO 00000KT 1 3/4SM BR VV007 19/19 A3020 RMK AO2 VIS 1 1/4V3
                 =
2017-08-21 06:15 METAR KLKU 211015Z AUTO 00000KT 2 1/2SM BR CLR 19/19 A3020 RMK AO2 =
2017-08-21 05:55 METAR KLKU 210955Z AUTO 00000KT 2SM BR CLR 19/18 A3020 RMK AO2 VIS 1V5 =
2017-08-21 05:35 METAR KLKU 210935Z AUTO 00000KT 2 1/2SM BR SCT010 19/19 A3020 RMK AO2 =
2017-08-21 05:15 METAR KLKU 210915Z AUTO 00000KT 5SM BR OVC010 21/19 A3020 RMK AO2 =
2017-08-21 04:55 METAR KLKU 210855Z AUTO 00000KT 4SM BR OVC010 20/19 A3019 RMK AO2 =
2017-08-21 04:35 METAR KLKU 210835Z AUTO 00000KT 4SM BR BKN012 120 19/18 A3019 RMK AO2 =
2017-08-21 04:15 METAR KLKU 210815Z AUTO 00000KT 7SM SCT012 120 19/19 A3019 RMK AO2 =
2017-08-21 03:55 METAR KLKU 210755Z AUTO 00000KT 5SM BR OVC110 19/19 A3019 RMK AO2 =
2017-08-21 03:35 METAR KLKU 210735Z AUTO 00000KT 5SM BR BKN110 19/18 A3019 RMK AO2 =
2017-08-21 03:15 METAR KLKU 210715Z AUTO 00000KT 2 1/2SM BR CLR 19/18 A3019 RMK AO2 VIS 1 3/4V5 =
2017-08-21 02:55 METAR KLKU 210655Z AUTO 00000KT 5SM BR CLR 19/18 A3019 RMK AO2 =
2017-08-21 02:35 METAR KLKU 210635Z AUTO 00000KT 5SM BR SCT120 19/19 A3018 RMK AO2 =
2017-08-21 02:15 METAR KLKU 210615Z AUTO 00000KT 4SM BR SCT120 19/18 A3019 RMK AO2 =
2017-08-21 01:55 METAR KLKU 210555Z AUTO 00000KT 7SM BKN120 20/19 A3019 RMK AO2 =
2017-08-21 01:35 METAR KLKU 210535Z AUTO 00000KT 7SM SCT120 20/19 A3019 RMK AO2 =
2017-08-21 01:15 METAR KLKU 210515Z AUTO 00000KT 10SM SCT120 21/19 A3019 RMK AO2 =
2017-08-21 00:55 METAR KLKU 210455Z AUTO 00000KT 10SM CLR 21/19 A3019 RMK AO2 =
2017-08-21 00:35 METAR KLKU 210435Z AUTO 00000KT 10SM CLR 22/20 A3019 RMK AO2 =
2017-08-21 00:15 METAR KLKU 210415Z AUTO 00000KT 10SM CLR 22/20 A3019 RMK AO2 =
2017-08-20 23:55 METAR KLKU 210355Z AUTO 00000KT 10SM CLR 23/20 A3019 RMK AO2 =
2017-08-20 23:35 METAR KLKU 210335Z AUTO 14003KT 10SM CLR 23/20 A3019 RMK AO2 =
2017-08-20 23:15 METAR KLKU 210315Z AUTO 13003KT 10SM SCT120 23/20 A3019 RMK AO2 =
2017-08-20 22:55 METAR KLKU 210255Z AUTO 12003KT 10SM SCT100 22/19 A3019 RMK AO2 =
2017-08-20 22:35 METAR KLKU 210235Z AUTO 00000KT 10SM BKN100 23/20 A3019 RMK AO2 =
2017-08-20 22:15 METAR KLKU 210215Z AUTO 00000KT 10SM SCT100 23/20 A3018 RMK AO2 =
2017-08-20 21:55 METAR KLKU 210155Z AUTO 00000KT 10SM CLR 22/20 A3018 RMK AO2 =
2017-08-20 21:35 METAR KLKU 210135Z AUTO 11003KT 10SM CLR 22/20 A3016 RMK AO2 =
2017-08-20 21:15 METAR KLKU 210115Z AUTO 11003KT 10SM CLR 22/20 A3016 RMK AO2 =
2017-08-20 20:55 METAR KLKU 210055Z AUTO 00000KT 10SM CLR 23/21 A3015 RMK AO2 =
2017-08-20 20:35 METAR KLKU 210035Z AUTO 00000KT 10SM CLR 23/21 A3014 RMK AO2 =
2017-08-20 20:15 METAR KLKU 210015Z AUTO 11003KT 10SM SCT120 24/21 A3013 RMK AO2 =
2017-08-20 19:55 METAR KLKU 202355Z AUTO 00000KT 10SM CLR 24/22 A3013 RMK AO2 =
2017-08-20 19:35 METAR KLKU 202335Z AUTO 10003KT 10SM CLR 25/22 A3013 RMK AO2 =
2017-08-20 19:15 METAR KLKU 202315Z AUTO 00000KT 10SM CLR 27/22 A3012 RMK AO2 =
2017-08-20 18:55 METAR KLKU 202255Z AUTO 00000KT 10SM CLR 28/21 A3012 RMK AO2 =
2017-08-20 18:35 METAR KLKU 202235Z AUTO 10003KT 10SM CLR 28/21 A3012 RMK AO2 =
2017-08-20 18:15 METAR KLKU 202215Z AUTO 11003KT 10SM CLR 29/21 A3011 RMK AO2 =
2017-08-20 17:55 METAR KLKU 202155Z AUTO 00000KT 10SM CLR 29/19 A3011 RMK AO2 =
2017-08-20 17:35 METAR KLKU 202135Z AUTO 00000KT 10SM CLR 29/19 A3011 RMK AO2 =
2017-08-20 17:15 METAR KLKU 202115Z AUTO 12003KT 10SM CLR 29/19 A3011 RMK AO2 =
2017-08-20 16:55 METAR KLKU 202055Z AUTO 00000KT 10SM CLR 29/19 A3011 RMK AO2 =
2017-08-20 16:35 METAR KLKU 202035Z AUTO 13003KT 10SM CLR 29/19 A3011 RMK AO2 =
2017-08-20 16:15 METAR KLKU 202015Z AUTO 00000KT 10SM CLR 30/19 A3011 RMK AO2 =
2017-08-20 15:55 METAR KLKU 201955Z AUTO 05003KT 10SM SCT044 29/19 A3012 RMK AO2 =
2017-08-20 15:35 METAR KLKU 201935Z AUTO 00000KT 10SM CLR 29/19 A3012 RMK AO2 =
2017-08-20 15:15 METAR KLKU 201915Z AUTO 14004KT 10SM CLR 29/19 A3012 RMK AO2 =
2017-08-20 14:55 METAR KLKU 201855Z AUTO 00000KT 10SM CLR 29/18 A3013 RMK AO2 =
2017-08-20 14:35 METAR KLKU 201835Z AUTO 03004KT 10SM CLR 29/19 A3013 RMK AO2 =
2017-08-20 14:15 METAR KLKU 201815Z AUTO 17003KT 10SM CLR 29/19 A3014 RMK AO2 =
2017-08-20 13:55 METAR KLKU 201755Z AUTO 05003KT 10SM CLR 29/19 A3014 RMK AO2 =
2017-08-20 13:35 METAR KLKU 201735Z AUTO 00000KT 10SM CLR 29/18 A3015 RMK AO2 =
2017-08-20 13:15 METAR KLKU 201715Z AUTO 04003KT 10SM CLR 29/19 A3015 RMK AO2 =
2017-08-20 12:55 METAR KLKU 201655Z AUTO 07004KT 10SM CLR 28/19 A3015 RMK AO2 =
2017-08-20 12:35 METAR KLKU 201635Z AUTO 34003KT 10SM CLR 28/18 A3015 RMK AO2 =
2017-08-20 12:15 METAR KLKU 201615Z AUTO 00000KT 10SM CLR 28/19 A3015 RMK AO2 =
2017-08-20 11:55 METAR KLKU 201555Z AUTO 36005KT 10SM CLR 27/18 A3015 RMK AO2 =
2017-08-20 11:35 METAR KLKU 201535Z AUTO 05005KT 10SM CLR 27/18 A3015 RMK AO2 =
2017-08-20 11:15 METAR KLKU 201515Z AUTO 04005KT 10SM CLR 27/18 A3015 RMK AO2 =
2017-08-20 10:55 METAR KLKU 201455Z AUTO 02005KT 10SM CLR 26/18 A3015 RMK AO2 =
2017-08-20 10:35 METAR KLKU 201435Z AUTO 04007KT 10SM CLR 26/18 A3014 RMK AO2 =
2017-08-20 10:15 METAR KLKU 201415Z AUTO 08004KT 10SM CLR 26/18 A3014 RMK AO2 =
2017-08-20 09:55 METAR KLKU 201355Z AUTO 06004KT 10SM CLR 24/18 A3014 RMK AO2 =
2017-08-20 09:35 METAR KLKU 201335Z AUTO 04005KT 10SM CLR 24/18 A3014 RMK AO2 =
2017-08-20 09:15 METAR KLKU 201315Z AUTO 05004KT 10SM CLR 23/18 A3013 RMK AO2 =
2017-08-20 08:55 METAR KLKU 201255Z AUTO 05005KT 10SM CLR 23/18 A3012 RMK AO2 =
2017-08-20 08:35 METAR KLKU 201235Z AUTO 05003KT 10SM CLR 22/18 A3012 RMK AO2 =
2017-08-20 08:15 METAR KLKU 201215Z AUTO 04004KT 10SM CLR 21/18 A3011 RMK AO2 =

Support USWX by starting your Amazon purchase here.